Thunder radar more information blitzortung!


avis per Pluja more information rain snow radar


Visita la nostra xarxa de llocs de meteo:

Template documentation
and downloads

And another site



Rain From: 18-11-2018 11:00 Until: 20:59 warning for: Rain Level: Yellow info button

Pagina Historial Weather Underground text

Diari Resum Cap La, TWC- Unitats:  Imperial    Mètric   Tant
« Previous Dia
SegĂźent Dia »
Diari Setmana Mensual Anual Personalitzada
  Maxima: Minima: Media:
Temperatura: TemperatureC °F 10.0 °F 11.1 °F
Punt de rosada: DewpointC °F 6.3 °F 7.4 °F
Humitat: Humidity % 68 % 78 %
Wind Speed: WindSpeedKMH mph 0.0 mph 8.5 mph
RĂ fegues de vent: WindSpeedGustKMH mph - -
Vent:- - ENE
Pression baro: PressurehPa in 1011.9 in -
Precipitacions: 1.0 in    
Historical Graphs
 
 
Dades de taula per Cap La, TWC-
Temps Temperatura Punt de rosada Pression baro Vent Wind Speed RĂ fegues de vent Humitat Rainfall Rate (Hourly)
TemperatureC °F DewpointC °F PressurehPa in Calm     Humidity % HourlyPrecipMM in
00:04 11.0 °F 8.9 °F 1015.9 in Calm     87 % 0.0 in
00:09 11.0 °F 8.9 °F 1015.9 in Calm     87 % 0.0 in
00:14 11.0 °F 8.9 °F 1015.9 in Calm     87 % 0.0 in
00:19 10.9 °F 8.8 °F 1014.9 in Calm     87 % 0.0 in
00:24 10.9 °F 8.8 °F 1014.9 in Calm     87 % 0.0 in
00:29 10.9 °F 8.8 °F 1014.9 in NNE 3.7 mph 2.6 mph 87 % 0.0 in
00:34 10.9 °F 8.8 °F 1014.9 in NNE 5.6 mph 2.3 mph 87 % 0.0 in
00:39 10.8 °F 8.7 °F 1014.9 in NE 5.6 mph 3.5 mph 87 % 0.0 in
00:44 10.8 °F 8.7 °F 1014.9 in Calm     87 % 0.0 in
00:49 10.8 °F 8.7 °F 1014.9 in Calm     87 % 0.0 in
00:54 10.8 °F 8.7 °F 1014.9 in NNE 3.7 mph 2.6 mph 87 % 0.0 in
00:59 10.8 °F 8.7 °F 1014.9 in ENE 3.9 mph 3.5 mph 87 % 0.0 in
01:04 10.8 °F 8.7 °F 1014.9 in NE 7.4 mph 5.8 mph 87 % 0.0 in
01:09 10.8 °F 8.7 °F 1014.9 in NNE 5.6 mph 1.4 mph 87 % 0.0 in
01:14 10.8 °F 8.7 °F 1014.9 in Calm     87 % 0.0 in
01:19 10.8 °F 8.7 °F 1014.9 in ENE 6.4 mph 3.5 mph 87 % 0.0 in
01:24 10.7 °F 8.6 °F 1014.9 in NE 1.9 mph   87 % 0.0 in
01:29 10.7 °F 8.6 °F 1014.9 in Calm     87 % 0.0 in
01:34 10.7 °F 8.6 °F 1014.9 in NNE 3.7 mph 3.5 mph 87 % 0.0 in
01:39 10.7 °F 8.4 °F 1014.9 in ENE 11.1 mph 4.7 mph 86 % 0.0 in
01:44 10.7 °F 8.4 °F 1014.9 in East 7.4 mph 6.9 mph 86 % 0.0 in
01:49 10.7 °F 8.3 °F 1014.9 in East 5.3 mph 2.3 mph 85 % 0.0 in
01:54 10.7 °F 8.3 °F 1014.9 in ENE 5.6 mph 3.5 mph 85 % 0.0 in
01:59 10.7 °F 8.3 °F 1014.9 in ESE 5.6 mph 3.2 mph 85 % 0.0 in
02:04 10.7 °F 8.3 °F 1013.9 in ENE 7.4 mph 3.9 mph 85 % 0.0 in
02:09 10.8 °F 8.4 °F 1013.9 in NNE 9.0 mph 5.3 mph 85 % 0.0 in
02:14 10.8 °F 8.2 °F 1013.9 in NE 11.1 mph 6.4 mph 84 % 0.0 in
02:19 10.7 °F 8.1 °F 1013.9 in NNE 11.1 mph 9.5 mph 84 % 0.0 in
02:24 10.7 °F 8.1 °F 1013.9 in NE 13.0 mph 8.7 mph 84 % 0.0 in
02:29 10.6 °F 8.0 °F 1013.9 in ENE 9.3 mph 6.9 mph 84 % 0.0 in
02:34 10.6 °F 8.0 °F 1013.9 in ENE 16.7 mph 10.0 mph 84 % 0.0 in
02:39 10.5 °F 7.9 °F 1013.9 in NNE 9.3 mph 7.6 mph 84 % 0.0 in
02:44 10.5 °F 7.7 °F 1013.9 in ENE 9.3 mph 7.6 mph 83 % 0.0 in
02:49 10.5 °F 7.7 °F 1013.9 in ENE 13.0 mph 6.1 mph 83 % 0.0 in
02:54 10.5 °F 7.7 °F 1013.9 in NNE 9.3 mph 5.0 mph 83 % 0.0 in
02:59 10.5 °F 7.7 °F 1013.9 in ENE 9.3 mph 4.2 mph 83 % 0.0 in
03:04 10.6 °F 7.8 °F 1013.9 in East 11.1 mph 6.4 mph 83 % 0.0 in
03:09 10.6 °F 7.8 °F 1013.9 in NE 5.6 mph 2.6 mph 83 % 0.0 in
03:14 10.6 °F 7.8 °F 1013.9 in ENE 3.7 mph 3.2 mph 83 % 0.0 in
03:19 10.6 °F 7.8 °F 1014.9 in ENE 5.6 mph 3.5 mph 83 % 0.0 in
03:24 10.6 °F 7.8 °F 1014.9 in NNE 7.4 mph 3.2 mph 83 % 0.0 in
03:29 10.5 °F 7.7 °F 1014.9 in NE 5.6 mph 5.0 mph 83 % 0.0 in
03:34 10.5 °F 7.7 °F 1013.9 in ENE 5.6 mph 4.7 mph 83 % 0.0 in
03:39 10.5 °F 7.7 °F 1013.9 in ESE 4.7 mph 3.2 mph 83 % 0.0 in
03:44 10.5 °F 7.7 °F 1013.9 in ENE 6.1 mph 5.3 mph 83 % 0.0 in
03:49 10.5 °F 7.7 °F 1013.9 in ENE 7.4 mph 4.2 mph 83 % 0.0 in
03:54 10.6 °F 7.8 °F 1013.9 in ENE 5.6 mph 2.6 mph 83 % 0.0 in
03:59 10.6 °F 7.7 °F 1013.9 in ENE 3.7 mph 3.2 mph 82 % 0.0 in
04:04 10.6 °F 7.7 °F 1013.9 in East 3.7 mph   82 % 0.0 in
04:09 10.5 °F 7.6 °F 1013.9 in SE 3.9 mph 4.2 mph 82 % 0.0 in
04:14 10.5 °F 7.6 °F 1013.9 in SE 5.6 mph 3.5 mph 82 % 0.0 in
04:19 10.5 °F 7.4 °F 1013.9 in SE 5.6 mph 1.4 mph 81 % 0.0 in
04:24 10.5 °F 7.4 °F 1013.9 in ESE 4.7 mph 2.3 mph 81 % 0.0 in
04:29 10.5 °F 7.6 °F 1013.9 in SW 2.6 mph   82 % 0.0 in
04:34 10.5 °F 7.6 °F 1013.9 in Calm     82 % 0.0 in
04:39 10.5 °F 7.4 °F 1013.9 in Calm     81 % 0.0 in
04:44 10.5 °F 7.6 °F 1013.9 in Calm     82 % 0.0 in
04:49 10.5 °F 7.6 °F 1013.9 in SW 3.5 mph   82 % 0.0 in
04:54 10.4 °F 7.4 °F 1013.9 in Calm     82 % 0.0 in
04:59 10.4 °F 7.4 °F 1013.9 in Calm     82 % 0.0 in
05:04 10.4 °F 7.4 °F 1013.9 in ENE 4.2 mph 1.9 mph 82 % 0.0 in
05:09 10.4 °F 7.4 °F 1013.9 in NNE 7.4 mph 4.2 mph 82 % 0.0 in
05:14 10.6 °F 7.5 °F 1013.9 in ENE 6.1 mph 4.2 mph 81 % 0.0 in
05:19 10.6 °F 7.5 °F 1013.9 in ENE 11.1 mph 6.4 mph 81 % 0.0 in
05:24 10.7 °F 7.4 °F 1013.9 in NE 9.3 mph 5.0 mph 80 % 0.0 in
05:29 10.7 °F 7.4 °F 1013.9 in NNE 7.4 mph 4.7 mph 80 % 0.0 in
05:34 10.7 °F 7.2 °F 1013.9 in NE 5.6 mph 3.5 mph 79 % 0.0 in
05:39 10.7 °F 7.2 °F 1013.9 in East 7.4 mph 6.1 mph 79 % 0.0 in
05:44 10.8 °F 7.3 °F 1013.9 in NNE 3.7 mph 2.6 mph 79 % 0.0 in
05:49 10.8 °F 7.3 °F 1013.9 in NE 1.9 mph 1.9 mph 79 % 0.0 in
05:54 10.8 °F 7.1 °F 1013.9 in ENE 3.7 mph   78 % 0.0 in
05:59 10.8 °F 7.1 °F 1013.9 in ENE 3.7 mph 1.9 mph 78 % 0.0 in
06:04 10.8 °F 7.1 °F 1013.9 in NNE 5.0 mph 3.5 mph 78 % 0.0 in
06:09 10.7 °F 7.2 °F 1013.9 in NNE 4.7 mph 4.7 mph 79 % 0.0 in
06:14 10.7 °F 7.2 °F 1013.9 in ENE 5.6 mph 3.5 mph 79 % 0.0 in
06:19 10.7 °F 7.0 °F 1013.9 in East 4.7 mph 3.2 mph 78 % 0.0 in
06:24 10.7 °F 7.0 °F 1013.9 in ENE 5.6 mph 2.6 mph 78 % 0.0 in
06:29 10.7 °F 7.2 °F 1013.9 in NE 5.6 mph 3.9 mph 79 % 0.0 in
06:34 10.6 °F 7.1 °F 1013.9 in NE 9.3 mph 5.3 mph 79 % 0.0 in
06:39 10.6 °F 7.1 °F 1013.9 in NNE 7.9 mph 4.2 mph 79 % 0.0 in
06:44 10.5 °F 7.0 °F 1013.9 in NE 7.4 mph 5.8 mph 79 % 0.0 in
06:49 10.5 °F 7.0 °F 1013.9 in ENE 7.4 mph 5.3 mph 79 % 0.0 in
06:54 10.4 °F 6.9 °F 1013.9 in NNE 6.1 mph 5.0 mph 79 % 0.0 in
06:59 10.4 °F 6.9 °F 1013.9 in NNE 5.8 mph 3.9 mph 79 % 0.0 in
07:04 10.4 °F 6.9 °F 1013.9 in North 3.7 mph   79 % 0.0 in
07:09 10.3 °F 6.8 °F 1013.9 in NNE 5.6 mph 4.7 mph 79 % 0.0 in
07:14 10.2 °F 6.7 °F 1013.9 in NNE 7.4 mph 5.0 mph 79 % 0.0 in
07:19 10.1 °F 6.6 °F 1012.9 in NE 5.6 mph 4.2 mph 79 % 0.0 in
07:24 10.2 °F 6.7 °F 1012.9 in NE 5.6 mph 2.6 mph 79 % 0.0 in
07:29 10.1 °F 6.6 °F 1012.9 in ENE 3.7 mph 1.9 mph 79 % 0.0 in
07:34 10.1 °F 6.6 °F 1013.9 in ENE 1.9 mph 1.4 mph 79 % 0.0 in
07:39 10.0 °F 6.5 °F 1013.9 in NE 7.4 mph 5.0 mph 79 % 0.0 in
07:44 10.0 °F 6.5 °F 1013.9 in WNW 3.7 mph 2.6 mph 79 % 0.0 in
07:49 10.1 °F 6.4 °F 1013.9 in NNE 5.6 mph 4.7 mph 78 % 0.0 in
07:54 10.1 °F 6.4 °F 1013.9 in North 7.4 mph 3.5 mph 78 % 0.0 in
07:59 10.0 °F 6.3 °F 1013.9 in NNW 3.7 mph   78 % 0.0 in
08:04 10.0 °F 6.3 °F 1012.9 in NNE 3.7 mph 1.9 mph 78 % 0.0 in
08:09 10.0 °F 6.3 °F 1012.9 in NNW 3.7 mph   78 % 0.0 in
08:14 10.0 °F 6.3 °F 1012.9 in NE 2.3 mph   78 % 0.0 in
08:19 10.0 °F 6.3 °F 1013.9 in NW 1.9 mph   78 % 0.0 in
08:24 10.0 °F 6.3 °F 1013.9 in Calm     78 % 0.0 in
08:29 10.0 °F 6.3 °F 1013.9 in NNE 5.6 mph 4.2 mph 78 % 0.0 in
08:34 10.0 °F 6.3 °F 1013.9 in NNE 5.6 mph 3.9 mph 78 % 0.0 in
08:39 10.0 °F 6.3 °F 1013.9 in ENE 3.9 mph 2.6 mph 78 % 0.0 in
08:44 10.0 °F 6.5 °F 1013.9 in NE 5.6 mph 5.0 mph 79 % 0.0 in
08:49 10.2 °F 6.7 °F 1013.9 in NNE 7.4 mph 7.2 mph 79 % 0.0 in
08:54 10.3 °F 6.8 °F 1013.9 in NNE 9.3 mph 6.4 mph 79 % 0.0 in
08:59 10.4 °F 6.9 °F 1013.9 in NNE 9.3 mph 9.0 mph 79 % 0.0 in
09:04 10.5 °F 7.0 °F 1013.9 in NNE 14.0 mph 11.9 mph 79 % 0.0 in
09:09 10.5 °F 7.0 °F 1013.9 in NNE 19.5 mph 16.9 mph 79 % 0.0 in
09:14 10.4 °F 6.9 °F 1013.9 in NNE 14.8 mph 7.9 mph 79 % 0.0 in
09:19 10.3 °F 6.8 °F 1012.9 in NNE 13.0 mph 9.7 mph 79 % 0.0 in
09:24 10.3 °F 6.8 °F 1012.9 in NE 13.0 mph 11.1 mph 79 % 0.0 in
09:29 10.3 °F 6.8 °F 1012.9 in NNE 9.3 mph 7.2 mph 79 % 0.0 in
09:34 10.4 °F 6.9 °F 1013.9 in ENE 13.0 mph 10.8 mph 79 % 0.0 in
09:39 10.6 °F 7.1 °F 1013.9 in ENE 13.0 mph 10.0 mph 79 % 0.0 in
09:44 10.7 °F 7.2 °F 1013.9 in NNE 13.0 mph 9.0 mph 79 % 0.0 in
09:49 10.9 °F 7.4 °F 1013.9 in NNW 7.4 mph 6.9 mph 79 % 0.0 in
09:54 11.2 °F 7.5 °F 1013.9 in NNE 8.7 mph 5.0 mph 78 % 0.0 in
09:59 11.6 °F 7.9 °F 1013.9 in NNE 5.8 mph 5.0 mph 78 % 0.0 in
10:04 11.5 °F 7.8 °F 1013.9 in NE 11.1 mph 7.9 mph 78 % 0.0 in
10:09 11.7 °F 7.8 °F 1013.9 in East 9.3 mph 7.6 mph 77 % 0.0 in
10:14 12.0 °F 7.9 °F 1013.9 in East 9.3 mph 7.9 mph 76 % 0.0 in
10:19 11.9 °F 7.8 °F 1013.9 in ENE 9.3 mph 5.3 mph 76 % 0.0 in
10:24 12.1 °F 8.0 °F 1013.9 in NNE 9.3 mph 7.6 mph 76 % 0.0 in
10:29 12.3 °F 8.0 °F 1013.9 in ENE 9.0 mph 6.1 mph 75 % 0.0 in
10:34 12.3 °F 7.8 °F 1012.9 in NNE 11.1 mph 6.4 mph 74 % 0.0 in
10:39 12.4 °F 7.9 °F 1012.9 in East 9.7 mph 8.7 mph 74 % 0.0 in
10:44 12.3 °F 7.6 °F 1012.9 in ENE 5.6 mph 5.0 mph 73 % 0.0 in
10:49 12.3 °F 7.6 °F 1013.9 in North 16.7 mph 10.8 mph 73 % 0.0 in
10:54 12.3 °F 7.6 °F 1013.9 in ENE 16.7 mph 9.5 mph 73 % 0.0 in
10:59 12.4 °F 7.7 °F 1013.9 in ESE 9.5 mph 7.9 mph 73 % 1.0 in
11:04 12.6 °F 7.9 °F 1013.9 in ENE 13.0 mph 10.0 mph 73 % 1.0 in
11:09 12.8 °F 7.9 °F 1013.9 in NNE 15.8 mph 14.0 mph 72 % 1.0 in
11:14 12.7 °F 7.6 °F 1013.9 in ENE 13.0 mph 6.4 mph 71 % 1.0 in
11:19 12.4 °F 7.3 °F 1013.9 in ENE 22.2 mph 11.4 mph 71 % 1.0 in
11:24 12.6 °F 7.5 °F 1013.9 in NE 13.0 mph 9.5 mph 71 % 1.0 in
11:29 12.7 °F 7.2 °F 1013.9 in NNE 22.2 mph 11.1 mph 69 % 1.0 in
11:34 12.6 °F 7.1 °F 1013.9 in ENE 16.7 mph 11.9 mph 69 % 1.0 in
11:39 12.5 °F 6.9 °F 1013.9 in ENE 20.6 mph 12.6 mph 69 % 1.0 in
11:44 12.4 °F 6.9 °F 1013.9 in East 22.0 mph 10.0 mph 69 % 1.0 in
11:49 12.5 °F 6.8 °F 1013.9 in NNW 14.8 mph 9.5 mph 68 % 1.0 in
11:54 12.5 °F 6.8 °F 1013.9 in NNE 14.8 mph 9.7 mph 68 % 1.0 in
11:59 12.4 °F 6.7 °F 1013.9 in ENE 13.0 mph 7.9 mph 68 % 0.0 in
12:04 12.5 °F 6.9 °F 1013.9 in SE 18.5 mph 9.0 mph 69 % 0.0 in
12:09 12.5 °F 6.9 °F 1013.9 in East 14.8 mph 10.0 mph 69 % 0.0 in
12:14 12.5 °F 6.9 °F 1013.9 in East 16.7 mph 10.0 mph 69 % 0.0 in
12:19 12.5 °F 6.9 °F 1013.9 in ENE 11.1 mph 6.1 mph 69 % 0.0 in
12:24 12.4 °F 6.9 °F 1013.9 in ESE 13.0 mph 6.9 mph 69 % 0.0 in
12:29 12.4 °F 6.9 °F 1013.9 in ESE 13.0 mph 5.0 mph 69 % 0.0 in
12:34 12.4 °F 6.9 °F 1013.9 in East 18.5 mph 10.8 mph 69 % 0.0 in
12:39 12.6 °F 7.1 °F 1013.9 in East 13.0 mph 9.5 mph 69 % 0.0 in
12:44 12.8 °F 7.3 °F 1013.9 in NE 18.5 mph 9.7 mph 69 % 0.0 in
12:49 12.4 °F 6.9 °F 1013.9 in NNE 20.4 mph 11.4 mph 69 % 0.0 in
12:54 12.4 °F 6.9 °F 1013.9 in ESE 14.8 mph 10.0 mph 69 % 0.0 in
12:59 12.5 °F 7.2 °F 1013.9 in ENE 13.0 mph 10.0 mph 70 % 0.0 in
13:04 12.5 °F 7.2 °F 1013.9 in NNE 9.3 mph 7.6 mph 70 % 0.0 in
13:09 12.3 °F 7.2 °F 1013.9 in East 13.0 mph 11.4 mph 71 % 0.0 in
13:14 12.2 °F 7.1 °F 1013.9 in NE 11.1 mph 8.7 mph 71 % 0.0 in
13:19 12.1 °F 7.2 °F 1013.9 in NNE 9.3 mph 6.4 mph 72 % 0.0 in
13:24 12.1 °F 7.2 °F 1013.9 in NNE 11.1 mph 10.3 mph 72 % 0.0 in
13:29 12.1 °F 7.2 °F 1013.9 in ENE 13.0 mph 8.7 mph 72 % 0.0 in
13:34 12.1 °F 7.4 °F 1013.9 in ENE 16.4 mph 10.0 mph 73 % 0.0 in
13:39 12.0 °F 7.3 °F 1013.9 in NNE 13.0 mph 8.7 mph 73 % 0.0 in
13:44 12.0 °F 7.5 °F 1013.9 in ENE 9.3 mph 6.9 mph 74 % 0.0 in
13:49 12.0 °F 7.5 °F 1012.9 in ENE 14.8 mph 7.6 mph 74 % 0.0 in
13:54 12.1 °F 7.6 °F 1012.9 in East 18.5 mph 11.1 mph 74 % 0.0 in
13:59 12.1 °F 7.8 °F 1012.9 in ENE 14.8 mph 11.9 mph 75 % 0.0 in
14:04 12.2 °F 7.9 °F 1012.9 in East 14.8 mph 9.5 mph 75 % 0.0 in
14:09 12.2 °F 7.9 °F 1012.9 in ENE 11.1 mph 6.1 mph 75 % 0.0 in
14:14 12.1 °F 7.8 °F 1012.9 in East 9.3 mph 10.0 mph 75 % 0.0 in
14:19 12.1 °F 7.8 °F 1011.9 in ENE 14.8 mph 13.7 mph 75 % 0.0 in
14:24 12.1 °F 7.8 °F 1011.9 in NNE 11.1 mph 5.3 mph 75 % 0.0 in
14:29 12.4 °F 8.1 °F 1011.9 in North 6.4 mph 4.2 mph 75 % 0.0 in
14:34 12.4 °F 8.1 °F 1011.9 in ENE 17.2 mph 9.0 mph 75 % 0.0 in
14:39 12.4 °F 8.1 °F 1011.9 in ENE 11.1 mph 8.7 mph 75 % 0.0 in
14:44 12.3 °F 8.0 °F 1011.9 in ENE 13.7 mph 9.7 mph 75 % 0.0 in
14:49 12.2 °F 7.9 °F 1011.9 in NE 9.3 mph 7.6 mph 75 % 0.0 in
14:54 12.2 °F 7.9 °F 1011.9 in ENE 13.0 mph 8.7 mph 75 % 0.0 in
14:59 12.1 °F 7.8 °F 1011.9 in East 13.0 mph 7.9 mph 75 % 0.0 in
15:04 12.0 °F 7.7 °F 1011.9 in ENE 9.3 mph 7.2 mph 75 % 0.0 in
Meteo Sesrovires
Elogis d' Weather Underground - 1.5 mb

Guio original per  Jim McMurry - jmcmurry@mwt.net Adaptat per a la plantilla per  Wim van der Kuil - Leuven-Template.eu

Trobareu la nostra informacio del temps tambe a:

Weather Underground

AWEKAS